sensor_id;sensor_type;location;lat;lon;timestamp;P1;durP1;ratioP1;P2;durP2;ratioP2
44446;SDS011;30152;52.066;5.358;2022-07-29T06:51:24;7.65;;;3.42;;
44446;SDS011;30152;52.066;5.358;2022-07-29T06:53:52;8.27;;;3.17;;
44446;SDS011;30152;52.066;5.358;2022-07-29T06:56:18;10.20;;;3.90;;
44446;SDS011;30152;52.066;5.358;2022-07-29T06:58:44;8.35;;;4.25;;
44446;SDS011;30152;52.066;5.358;2022-07-29T07:01:10;16.08;;;5.05;;
44446;SDS011;30152;52.066;5.358;2022-07-29T07:03:36;7.00;;;4.25;;
44446;SDS011;30152;52.066;5.358;2022-07-29T07:06:02;9.52;;;4.65;;
44446;SDS011;30152;52.066;5.358;2022-07-29T07:08:28;9.93;;;5.00;;
44446;SDS011;30152;52.066;5.358;2022-07-29T07:10:54;10.95;;;5.05;;
44446;SDS011;30152;52.066;5.358;2022-07-29T07:13:21;20.50;;;5.57;;
44446;SDS011;30152;52.066;5.358;2022-07-29T07:15:47;8.77;;;5.47;;
44446;SDS011;30152;52.066;5.358;2022-07-29T07:18:14;12.35;;;6.25;;
44446;SDS011;30152;52.066;5.358;2022-07-29T07:20:40;12.68;;;6.50;;
44446;SDS011;30152;52.066;5.358;2022-07-29T07:23:06;12.48;;;5.32;;
44446;SDS011;30152;52.066;5.358;2022-07-29T07:25:32;14.38;;;5.07;;
44446;SDS011;30152;52.066;5.358;2022-07-29T07:27:58;9.23;;;4.63;;
44446;SDS011;30152;52.066;5.358;2022-07-29T07:30:24;10.63;;;4.97;;
44446;SDS011;30152;52.066;5.358;2022-07-29T07:32:50;9.75;;;4.85;;
44446;SDS011;30152;52.066;5.358;2022-07-29T07:35:16;13.63;;;4.60;;
44446;SDS011;30152;52.066;5.358;2022-07-29T07:37:42;12.23;;;5.97;;
44446;SDS011;30152;52.066;5.358;2022-07-29T07:40:08;65.85;;;59.72;;
44446;SDS011;30152;52.066;5.358;2022-07-29T07:42:36;10.27;;;3.10;;
44446;SDS011;30152;52.066;5.358;2022-07-29T07:45:03;6.38;;;2.70;;
44446;SDS011;30152;52.066;5.358;2022-07-29T07:47:29;6.22;;;3.47;;
44446;SDS011;30152;52.066;5.358;2022-07-29T07:49:55;10.93;;;3.53;;
44446;SDS011;30152;52.066;5.358;2022-07-29T07:52:21;7.82;;;2.88;;
44446;SDS011;30152;52.066;5.358;2022-07-29T07:54:47;9.40;;;3.30;;
44446;SDS011;30152;52.066;5.358;2022-07-29T07:57:14;7.38;;;2.85;;
44446;SDS011;30152;52.066;5.358;2022-07-29T07:59:40;5.85;;;2.90;;
44446;SDS011;30152;52.066;5.358;2022-07-29T08:02:06;10.30;;;3.15;;
44446;SDS011;30152;52.066;5.358;2022-07-29T08:04:34;10.13;;;3.10;;
44446;SDS011;30152;52.066;5.358;2022-07-29T08:06:59;7.75;;;3.20;;
44446;SDS011;30152;52.066;5.358;2022-07-29T08:09:26;10.82;;;3.00;;
44446;SDS011;30152;52.066;5.358;2022-07-29T08:11:52;10.25;;;5.68;;
44446;SDS011;30152;52.066;5.358;2022-07-29T08:14:19;7.90;;;3.22;;
44446;SDS011;30152;52.066;5.358;2022-07-29T08:16:45;9.75;;;3.22;;
44446;SDS011;30152;52.066;5.358;2022-07-29T08:19:11;9.60;;;3.25;;
44446;SDS011;30152;52.066;5.358;2022-07-29T08:21:37;13.40;;;2.90;;
44446;SDS011;30152;52.066;5.358;2022-07-29T08:24:03;6.82;;;3.20;;
44446;SDS011;30152;52.066;5.358;2022-07-29T08:29:13;9.23;;;2.97;;
44446;SDS011;30152;52.066;5.358;2022-07-29T08:31:39;8.68;;;3.05;;
44446;SDS011;30152;52.066;5.358;2022-07-29T08:34:05;16.05;;;3.30;;
44446;SDS011;30152;52.066;5.358;2022-07-29T08:36:31;9.70;;;3.00;;
44446;SDS011;30152;52.066;5.358;2022-07-29T08:38:58;10.10;;;3.33;;
44446;SDS011;30152;52.066;5.358;2022-07-29T08:41:24;7.45;;;3.53;;
44446;SDS011;30152;52.066;5.358;2022-07-29T08:43:50;10.15;;;3.40;;
44446;SDS011;30152;52.066;5.358;2022-07-29T08:46:17;28.88;;;26.42;;
44446;SDS011;30152;52.066;5.358;2022-07-29T08:48:44;6.15;;;4.00;;
44446;SDS011;30152;52.066;5.358;2022-07-29T08:51:14;8.85;;;3.28;;
44446;SDS011;30152;52.066;5.358;2022-07-29T08:53:42;8.20;;;2.67;;
44446;SDS011;30152;52.066;5.358;2022-07-29T08:56:12;7.88;;;2.83;;
44446;SDS011;30152;52.066;5.358;2022-07-29T08:58:39;94.88;;;60.33;;
44446;SDS011;30152;52.066;5.358;2022-07-29T09:01:05;27.55;;;25.77;;
44446;SDS011;30152;52.066;5.358;2022-07-29T09:03:32;12.45;;;5.05;;
44446;SDS011;30152;52.066;5.358;2022-07-29T09:05:59;9.30;;;8.40;;
44446;SDS011;30152;52.066;5.358;2022-07-29T09:08:26;23.75;;;22.05;;
44446;SDS011;30152;52.066;5.358;2022-07-29T09:10:53;36.20;;;34.00;;
44446;SDS011;30152;52.066;5.358;2022-07-29T09:13:20;52.92;;;49.80;;
44446;SDS011;30152;52.066;5.358;2022-07-29T09:15:46;49.60;;;46.67;;
44446;SDS011;30152;52.066;5.358;2022-07-29T09:18:12;1999.90;;;999.90;;
44446;SDS011;30152;52.066;5.358;2022-07-29T09:21:01;55.70;;;52.60;;
44446;SDS011;30152;52.066;5.358;2022-07-29T09:26:35;1999.90;;;999.90;;
44446;SDS011;30152;52.066;5.358;2022-07-29T09:29:18;1999.90;;;999.90;;
44446;SDS011;30152;52.066;5.358;2022-07-29T09:31:47;35.08;;;14.93;;
44446;SDS011;30152;52.066;5.358;2022-07-29T09:34:15;6.95;;;2.50;;
44446;SDS011;30152;52.066;5.358;2022-07-29T09:36:47;13.05;;;2.90;;
44446;SDS011;30152;52.066;5.358;2022-07-29T09:39:15;9.43;;;2.72;;
44446;SDS011;30152;52.066;5.358;2022-07-29T09:41:48;13.27;;;2.80;;
44446;SDS011;30152;52.066;5.358;2022-07-29T09:44:17;11.10;;;3.30;;
44446;SDS011;30152;52.066;5.358;2022-07-29T09:47:00;8.23;;;2.47;;
44446;SDS011;30152;52.066;5.358;2022-07-29T09:49:33;8.10;;;2.60;;
44446;SDS011;30152;52.066;5.358;2022-07-29T09:52:08;105.82;;;47.05;;
44446;SDS011;30152;52.066;5.358;2022-07-29T09:54:36;12.88;;;2.38;;
44446;SDS011;30152;52.066;5.358;2022-07-29T09:57:06;11.65;;;2.83;;
44446;SDS011;30152;52.066;5.358;2022-07-29T09:59:56;8.90;;;2.60;;
44446;SDS011;30152;52.066;5.358;2022-07-29T10:02:22;10.18;;;2.40;;
44446;SDS011;30152;52.066;5.358;2022-07-29T10:04:52;9.02;;;2.45;;
44446;SDS011;30152;52.066;5.358;2022-07-29T10:07:18;10.70;;;1.70;;
44446;SDS011;30152;52.066;5.358;2022-07-29T10:09:54;5.57;;;1.67;;
44446;SDS011;30152;52.066;5.358;2022-07-29T10:12:21;10.82;;;2.47;;
44446;SDS011;30152;52.066;5.358;2022-07-29T10:14:47;9.80;;;2.55;;
44446;SDS011;30152;52.066;5.358;2022-07-29T10:17:13;7.85;;;1.80;;
44446;SDS011;30152;52.066;5.358;2022-07-29T10:19:40;6.88;;;1.88;;
44446;SDS011;30152;52.066;5.358;2022-07-29T10:22:07;5.88;;;2.20;;
44446;SDS011;30152;52.066;5.358;2022-07-29T10:24:34;10.02;;;2.35;;
44446;SDS011;30152;52.066;5.358;2022-07-29T10:27:01;11.25;;;2.63;;
44446;SDS011;30152;52.066;5.358;2022-07-29T10:29:27;7.85;;;2.13;;
44446;SDS011;30152;52.066;5.358;2022-07-29T10:37:12;10.20;;;2.47;;
44446;SDS011;30152;52.066;5.358;2022-07-29T10:42:47;7.30;;;1.90;;
44446;SDS011;30152;52.066;5.358;2022-07-29T10:45:16;6.57;;;2.30;;
44446;SDS011;30152;52.066;5.358;2022-07-29T10:47:42;7.60;;;2.40;;
44446;SDS011;30152;52.066;5.358;2022-07-29T10:50:08;9.20;;;2.05;;
44446;SDS011;30152;52.066;5.358;2022-07-29T10:55:30;6.32;;;1.98;;
44446;SDS011;30152;52.066;5.358;2022-07-29T10:58:16;13.65;;;3.20;;
44446;SDS011;30152;52.066;5.358;2022-07-29T11:00:45;5.68;;;1.90;;
44446;SDS011;30152;52.066;5.358;2022-07-29T11:03:54;8.88;;;2.20;;
44446;SDS011;30152;52.066;5.358;2022-07-29T11:06:11;13.27;;;1.90;;
44446;SDS011;30152;52.066;5.358;2022-07-29T11:08:37;9.27;;;2.00;;
44446;SDS011;30152;52.066;5.358;2022-07-29T11:16:11;7.03;;;2.35;;
44446;SDS011;30152;52.066;5.358;2022-07-29T11:19:18;8.50;;;2.70;;
44446;SDS011;30152;52.066;5.358;2022-07-29T11:21:35;8.10;;;2.40;;
44446;SDS011;30152;52.066;5.358;2022-07-29T11:24:14;6.57;;;2.42;;
44446;SDS011;30152;52.066;5.358;2022-07-29T11:26:43;10.07;;;2.88;;
44446;SDS011;30152;52.066;5.358;2022-07-29T11:29:18;10.18;;;3.15;;
44446;SDS011;30152;52.066;5.358;2022-07-29T11:31:49;12.73;;;3.20;;
44446;SDS011;30152;52.066;5.358;2022-07-29T11:34:31;9.18;;;3.45;;
44446;SDS011;30152;52.066;5.358;2022-07-29T11:39:35;8.57;;;2.67;;
44446;SDS011;30152;52.066;5.358;2022-07-29T11:42:36;8.90;;;3.63;;
44446;SDS011;30152;52.066;5.358;2022-07-29T11:45:00;12.70;;;2.92;;
44446;SDS011;30152;52.066;5.358;2022-07-29T11:47:30;17.08;;;8.52;;
44446;SDS011;30152;52.066;5.358;2022-07-29T11:49:58;10.77;;;3.92;;
44446;SDS011;30152;52.066;5.358;2022-07-29T11:52:41;13.40;;;4.00;;
44446;SDS011;30152;52.066;5.358;2022-07-29T11:55:11;11.30;;;4.38;;
44446;SDS011;30152;52.066;5.358;2022-07-29T12:00:23;12.55;;;3.80;;
44446;SDS011;30152;52.066;5.358;2022-07-29T12:02:50;10.65;;;4.13;;
44446;SDS011;30152;52.066;5.358;2022-07-29T12:05:16;8.65;;;3.50;;
44446;SDS011;30152;52.066;5.358;2022-07-29T12:07:42;9.80;;;3.47;;
44446;SDS011;30152;52.066;5.358;2022-07-29T12:10:08;12.68;;;4.05;;
44446;SDS011;30152;52.066;5.358;2022-07-29T12:12:35;8.43;;;4.18;;
44446;SDS011;30152;52.066;5.358;2022-07-29T12:15:10;12.00;;;4.00;;
44446;SDS011;30152;52.066;5.358;2022-07-29T12:17:40;15.75;;;3.70;;
44446;SDS011;30152;52.066;5.358;2022-07-29T12:20:06;13.15;;;4.15;;
44446;SDS011;30152;52.066;5.358;2022-07-29T12:22:33;11.63;;;4.28;;
44446;SDS011;30152;52.066;5.358;2022-07-29T12:25:06;12.43;;;3.47;;
44446;SDS011;30152;52.066;5.358;2022-07-29T12:27:34;13.48;;;3.42;;
44446;SDS011;30152;52.066;5.358;2022-07-29T12:30:03;11.70;;;3.83;;
44446;SDS011;30152;52.066;5.358;2022-07-29T12:32:31;11.82;;;3.58;;
44446;SDS011;30152;52.066;5.358;2022-07-29T12:37:34;11.57;;;3.70;;
44446;SDS011;30152;52.066;5.358;2022-07-29T12:40:02;8.45;;;3.50;;
44446;SDS011;30152;52.066;5.358;2022-07-29T12:42:29;12.35;;;3.85;;
44446;SDS011;30152;52.066;5.358;2022-07-29T12:44:55;25.95;;;24.35;;
44446;SDS011;30152;52.066;5.358;2022-07-29T12:47:21;26.60;;;24.58;;
44446;SDS011;30152;52.066;5.358;2022-07-29T12:49:48;26.55;;;24.25;;
44446;SDS011;30152;52.066;5.358;2022-07-29T12:55:12;48.55;;;45.85;;
44446;SDS011;30152;52.066;5.358;2022-07-29T12:57:48;13.98;;;8.73;;
44446;SDS011;30152;52.066;5.358;2022-07-29T13:00:22;15.70;;;14.32;;
44446;SDS011;30152;52.066;5.358;2022-07-29T13:02:54;20.50;;;19.00;;
44446;SDS011;30152;52.066;5.358;2022-07-29T13:05:24;38.33;;;36.00;;
44446;SDS011;30152;52.066;5.358;2022-07-29T13:08:11;32.28;;;30.17;;
44446;SDS011;30152;52.066;5.358;2022-07-29T13:10:40;41.45;;;38.80;;
44446;SDS011;30152;52.066;5.358;2022-07-29T13:13:07;1999.90;;;999.90;;
44446;SDS011;30152;52.066;5.358;2022-07-29T13:15:35;1999.90;;;999.90;;
44446;SDS011;30152;52.066;5.358;2022-07-29T13:18:27;1999.90;;;999.90;;
44446;SDS011;30152;52.066;5.358;2022-07-29T13:20:54;48.85;;;45.60;;
44446;SDS011;30152;52.066;5.358;2022-07-29T13:23:20;11.43;;;3.22;;
44446;SDS011;30152;52.066;5.358;2022-07-29T13:25:46;8.32;;;3.17;;
44446;SDS011;30152;52.066;5.358;2022-07-29T13:28:12;10.57;;;3.08;;
44446;SDS011;30152;52.066;5.358;2022-07-29T13:30:41;11.43;;;3.85;;
44446;SDS011;30152;52.066;5.358;2022-07-29T13:33:08;21.23;;;3.90;;
44446;SDS011;30152;52.066;5.358;2022-07-29T13:35:33;13.10;;;3.60;;
44446;SDS011;30152;52.066;5.358;2022-07-29T13:37:59;9.23;;;3.70;;
44446;SDS011;30152;52.066;5.358;2022-07-29T13:40:25;12.15;;;3.40;;
44446;SDS011;30152;52.066;5.358;2022-07-29T13:42:51;10.90;;;2.80;;
44446;SDS011;30152;52.066;5.358;2022-07-29T13:45:17;51.20;;;9.52;;
44446;SDS011;30152;52.066;5.358;2022-07-29T13:47:42;12.55;;;2.97;;
44446;SDS011;30152;52.066;5.358;2022-07-29T13:50:08;7.00;;;2.58;;
44446;SDS011;30152;52.066;5.358;2022-07-29T13:52:35;8.57;;;3.15;;
44446;SDS011;30152;52.066;5.358;2022-07-29T13:55:02;8.40;;;2.38;;
44446;SDS011;30152;52.066;5.358;2022-07-29T13:57:28;8.85;;;2.65;;
44446;SDS011;30152;52.066;5.358;2022-07-29T13:59:54;12.15;;;3.00;;
44446;SDS011;30152;52.066;5.358;2022-07-29T14:02:20;8.82;;;2.85;;
44446;SDS011;30152;52.066;5.358;2022-07-29T14:04:46;11.10;;;3.22;;
44446;SDS011;30152;52.066;5.358;2022-07-29T14:07:12;12.48;;;3.50;;
44446;SDS011;30152;52.066;5.358;2022-07-29T14:09:38;8.85;;;3.30;;
44446;SDS011;30152;52.066;5.358;2022-07-29T14:12:04;14.48;;;3.13;;
44446;SDS011;30152;52.066;5.358;2022-07-29T14:14:30;8.10;;;2.65;;
44446;SDS011;30152;52.066;5.358;2022-07-29T14:16:57;7.40;;;2.10;;
44446;SDS011;30152;52.066;5.358;2022-07-29T14:19:23;8.50;;;2.92;;
44446;SDS011;30152;52.066;5.358;2022-07-29T14:21:48;8.07;;;2.92;;
44446;SDS011;30152;52.066;5.358;2022-07-29T14:24:14;8.85;;;3.25;;
44446;SDS011;30152;52.066;5.358;2022-07-29T14:26:40;9.95;;;3.35;;
44446;SDS011;30152;52.066;5.358;2022-07-29T14:29:06;10.48;;;2.65;;
44446;SDS011;30152;52.066;5.358;2022-07-29T14:31:32;9.20;;;2.97;;
44446;SDS011;30152;52.066;5.358;2022-07-29T14:33:57;11.40;;;3.80;;
44446;SDS011;30152;52.066;5.358;2022-07-29T14:36:23;9.57;;;3.42;;
44446;SDS011;30152;52.066;5.358;2022-07-29T14:38:49;8.77;;;2.88;;
44446;SDS011;30152;52.066;5.358;2022-07-29T14:41:14;9.73;;;2.50;;
44446;SDS011;30152;52.066;5.358;2022-07-29T14:43:40;8.07;;;2.75;;
44446;SDS011;30152;52.066;5.358;2022-07-29T14:46:06;6.15;;;2.65;;
44446;SDS011;30152;52.066;5.358;2022-07-29T14:48:32;10.45;;;3.17;;
44446;SDS011;30152;52.066;5.358;2022-07-29T14:50:58;7.28;;;3.40;;
44446;SDS011;30152;52.066;5.358;2022-07-29T14:53:24;14.85;;;4.00;;
44446;SDS011;30152;52.066;5.358;2022-07-29T14:55:50;7.18;;;3.75;;
44446;SDS011;30152;52.066;5.358;2022-07-29T14:58:15;8.90;;;4.00;;
44446;SDS011;30152;52.066;5.358;2022-07-29T15:00:41;7.82;;;4.32;;
44446;SDS011;30152;52.066;5.358;2022-07-29T15:03:07;9.40;;;5.05;;
44446;SDS011;30152;52.066;5.358;2022-07-29T15:05:36;9.38;;;5.57;;
44446;SDS011;30152;52.066;5.358;2022-07-29T15:08:02;11.93;;;6.20;;
44446;SDS011;30152;52.066;5.358;2022-07-29T15:10:28;12.13;;;7.07;;
44446;SDS011;30152;52.066;5.358;2022-07-29T15:12:54;11.45;;;7.30;;
44446;SDS011;30152;52.066;5.358;2022-07-29T15:15:20;35.00;;;32.92;;
44446;SDS011;30152;52.066;5.358;2022-07-29T15:17:46;8.15;;;2.75;;
44446;SDS011;30152;52.066;5.358;2022-07-29T15:20:12;9.65;;;2.10;;
44446;SDS011;30152;52.066;5.358;2022-07-29T15:22:38;10.20;;;2.28;;
44446;SDS011;30152;52.066;5.358;2022-07-29T15:25:06;10.18;;;2.20;;
44446;SDS011;30152;52.066;5.358;2022-07-29T15:27:32;8.13;;;2.08;;
44446;SDS011;30152;52.066;5.358;2022-07-29T15:29:58;7.32;;;2.05;;
44446;SDS011;30152;52.066;5.358;2022-07-29T15:32:24;16.42;;;3.33;;
44446;SDS011;30152;52.066;5.358;2022-07-29T15:34:49;7.95;;;2.25;;
44446;SDS011;30152;52.066;5.358;2022-07-29T15:37:15;8.18;;;2.10;;
44446;SDS011;30152;52.066;5.358;2022-07-29T15:39:41;4.90;;;1.85;;
44446;SDS011;30152;52.066;5.358;2022-07-29T15:42:07;7.00;;;2.17;;
44446;SDS011;30152;52.066;5.358;2022-07-29T15:44:33;7.82;;;1.95;;
44446;SDS011;30152;52.066;5.358;2022-07-29T15:46:59;14.77;;;13.57;;
44446;SDS011;30152;52.066;5.358;2022-07-29T15:49:27;4.22;;;1.25;;
44446;SDS011;30152;52.066;5.358;2022-07-29T15:51:59;5.85;;;1.55;;
44446;SDS011;30152;52.066;5.358;2022-07-29T15:54:26;9.27;;;1.75;;
44446;SDS011;30152;52.066;5.358;2022-07-29T15:56:52;6.93;;;1.58;;
44446;SDS011;30152;52.066;5.358;2022-07-29T15:59:18;7.97;;;1.50;;
44446;SDS011;30152;52.066;5.358;2022-07-29T16:01:44;5.75;;;1.33;;
44446;SDS011;30152;52.066;5.358;2022-07-29T16:04:10;6.13;;;1.27;;
44446;SDS011;30152;52.066;5.358;2022-07-29T16:06:36;6.68;;;1.30;;
44446;SDS011;30152;52.066;5.358;2022-07-29T16:09:02;6.88;;;1.10;;
44446;SDS011;30152;52.066;5.358;2022-07-29T16:11:28;5.82;;;1.30;;
44446;SDS011;30152;52.066;5.358;2022-07-29T16:13:54;5.28;;;1.52;;
44446;SDS011;30152;52.066;5.358;2022-07-29T16:16:20;7.75;;;1.98;;
44446;SDS011;30152;52.066;5.358;2022-07-29T16:18:46;9.85;;;1.92;;
44446;SDS011;30152;52.066;5.358;2022-07-29T16:21:12;7.80;;;2.05;;
44446;SDS011;30152;52.066;5.358;2022-07-29T16:23:38;6.45;;;2.10;;
44446;SDS011;30152;52.066;5.358;2022-07-29T16:26:04;5.25;;;1.55;;
44446;SDS011;30152;52.066;5.358;2022-07-29T16:28:30;9.57;;;2.10;;
44446;SDS011;30152;52.066;5.358;2022-07-29T16:30:56;6.35;;;1.90;;
44446;SDS011;30152;52.066;5.358;2022-07-29T16:33:22;6.25;;;1.90;;
44446;SDS011;30152;52.066;5.358;2022-07-29T16:35:48;7.68;;;1.30;;
44446;SDS011;30152;52.066;5.358;2022-07-29T16:38:14;5.85;;;1.10;;
44446;SDS011;30152;52.066;5.358;2022-07-29T16:40:40;922.47;;;380.75;;
44446;SDS011;30152;52.066;5.358;2022-07-29T16:43:06;92.07;;;78.47;;
44446;SDS011;30152;52.066;5.358;2022-07-29T16:45:31;1999.90;;;999.90;;
44446;SDS011;30152;52.066;5.358;2022-07-29T16:47:57;5.00;;;1.27;;
44446;SDS011;30152;52.066;5.358;2022-07-29T16:50:23;7.03;;;1.20;;
44446;SDS011;30152;52.066;5.358;2022-07-29T16:52:51;5.78;;;1.40;;
44446;SDS011;30152;52.066;5.358;2022-07-29T16:55:17;6.18;;;1.60;;
44446;SDS011;30152;52.066;5.358;2022-07-29T16:57:43;5.35;;;1.90;;
44446;SDS011;30152;52.066;5.358;2022-07-29T17:00:09;5.85;;;1.50;;
44446;SDS011;30152;52.066;5.358;2022-07-29T17:02:36;5.10;;;1.40;;
44446;SDS011;30152;52.066;5.358;2022-07-29T17:05:02;10.15;;;1.90;;
44446;SDS011;30152;52.066;5.358;2022-07-29T17:07:28;7.30;;;1.83;;
44446;SDS011;30152;52.066;5.358;2022-07-29T17:09:54;4.05;;;1.10;;
44446;SDS011;30152;52.066;5.358;2022-07-29T17:12:21;7.85;;;1.63;;
44446;SDS011;30152;52.066;5.358;2022-07-29T17:14:47;6.07;;;2.20;;
44446;SDS011;30152;52.066;5.358;2022-07-29T17:17:13;6.43;;;2.55;;
44446;SDS011;30152;52.066;5.358;2022-07-29T17:19:39;7.50;;;2.55;;
44446;SDS011;30152;52.066;5.358;2022-07-29T17:22:05;6.35;;;2.20;;
44446;SDS011;30152;52.066;5.358;2022-07-29T17:24:31;9.40;;;2.65;;
44446;SDS011;30152;52.066;5.358;2022-07-29T17:26:57;10.10;;;2.35;;
44446;SDS011;30152;52.066;5.358;2022-07-29T17:29:23;11.15;;;2.60;;
44446;SDS011;30152;52.066;5.358;2022-07-29T17:31:49;9.20;;;2.25;;
44446;SDS011;30152;52.066;5.358;2022-07-29T17:34:15;7.97;;;2.20;;
44446;SDS011;30152;52.066;5.358;2022-07-29T17:36:41;10.18;;;2.55;;
44446;SDS011;30152;52.066;5.358;2022-07-29T17:39:07;7.28;;;2.35;;
44446;SDS011;30152;52.066;5.358;2022-07-29T17:41:36;7.97;;;2.20;;
44446;SDS011;30152;52.066;5.358;2022-07-29T17:44:04;7.93;;;2.75;;
44446;SDS011;30152;52.066;5.358;2022-07-29T17:46:30;10.65;;;2.50;;
44446;SDS011;30152;52.066;5.358;2022-07-29T17:48:56;6.93;;;2.83;;
44446;SDS011;30152;52.066;5.358;2022-07-29T17:51:22;9.07;;;2.40;;
44446;SDS011;30152;52.066;5.358;2022-07-29T17:53:49;12.68;;;2.75;;
44446;SDS011;30152;52.066;5.358;2022-07-29T17:56:15;9.15;;;2.45;;
44446;SDS011;30152;52.066;5.358;2022-07-29T17:58:41;10.55;;;2.58;;
44446;SDS011;30152;52.066;5.358;2022-07-29T18:01:08;10.45;;;2.30;;
44446;SDS011;30152;52.066;5.358;2022-07-29T18:03:34;8.30;;;2.30;;
44446;SDS011;30152;52.066;5.358;2022-07-29T18:05:59;8.93;;;2.20;;
44446;SDS011;30152;52.066;5.358;2022-07-29T18:08:26;11.40;;;2.58;;
44446;SDS011;30152;52.066;5.358;2022-07-29T18:10:52;11.60;;;2.60;;
44446;SDS011;30152;52.066;5.358;2022-07-29T18:13:18;10.65;;;2.65;;
44446;SDS011;30152;52.066;5.358;2022-07-29T18:15:44;10.15;;;2.50;;
44446;SDS011;30152;52.066;5.358;2022-07-29T18:18:11;6.85;;;2.90;;
44446;SDS011;30152;52.066;5.358;2022-07-29T18:20:40;7.45;;;2.25;;
44446;SDS011;30152;52.066;5.358;2022-07-29T18:23:07;11.55;;;2.38;;
44446;SDS011;30152;52.066;5.358;2022-07-29T18:25:33;10.20;;;2.13;;
44446;SDS011;30152;52.066;5.358;2022-07-29T18:27:59;9.43;;;2.78;;
44446;SDS011;30152;52.066;5.358;2022-07-29T18:30:25;7.18;;;1.95;;
44446;SDS011;30152;52.066;5.358;2022-07-29T18:32:52;9.55;;;2.47;;
44446;SDS011;30152;52.066;5.358;2022-07-29T18:35:17;8.48;;;2.20;;
44446;SDS011;30152;52.066;5.358;2022-07-29T18:37:43;11.27;;;2.65;;
44446;SDS011;30152;52.066;5.358;2022-07-29T18:40:10;8.77;;;2.13;;
44446;SDS011;30152;52.066;5.358;2022-07-29T18:42:36;6.47;;;1.90;;
44446;SDS011;30152;52.066;5.358;2022-07-29T18:45:08;7.75;;;1.88;;
44446;SDS011;30152;52.066;5.358;2022-07-29T18:47:34;9.73;;;2.25;;
44446;SDS011;30152;52.066;5.358;2022-07-29T18:50:01;9.70;;;2.65;;
44446;SDS011;30152;52.066;5.358;2022-07-29T18:52:28;9.68;;;2.35;;
44446;SDS011;30152;52.066;5.358;2022-07-29T18:54:54;7.10;;;2.30;;
44446;SDS011;30152;52.066;5.358;2022-07-29T18:57:19;10.85;;;2.38;;
44446;SDS011;30152;52.066;5.358;2022-07-29T18:59:45;12.95;;;2.58;;
44446;SDS011;30152;52.066;5.358;2022-07-29T19:02:11;10.00;;;2.60;;
44446;SDS011;30152;52.066;5.358;2022-07-29T19:04:37;9.90;;;4.70;;
44446;SDS011;30152;52.066;5.358;2022-07-29T19:07:03;10.60;;;3.05;;
44446;SDS011;30152;52.066;5.358;2022-07-29T19:09:29;12.57;;;5.05;;
44446;SDS011;30152;52.066;5.358;2022-07-29T19:11:55;8.10;;;4.93;;
44446;SDS011;30152;52.066;5.358;2022-07-29T19:14:21;8.02;;;5.13;;
44446;SDS011;30152;52.066;5.358;2022-07-29T19:16:47;12.68;;;5.32;;
44446;SDS011;30152;52.066;5.358;2022-07-29T19:19:13;14.02;;;6.57;;
44446;SDS011;30152;52.066;5.358;2022-07-29T19:21:39;15.25;;;13.80;;
44446;SDS011;30152;52.066;5.358;2022-07-29T19:24:05;19.52;;;17.92;;
44446;SDS011;30152;52.066;5.358;2022-07-29T19:26:32;25.95;;;24.13;;
44446;SDS011;30152;52.066;5.358;2022-07-29T19:29:00;1999.90;;;999.90;;
44446;SDS011;30152;52.066;5.358;2022-07-29T19:31:26;1999.90;;;999.90;;
44446;SDS011;30152;52.066;5.358;2022-07-29T19:33:52;1999.90;;;999.90;;
44446;SDS011;30152;52.066;5.358;2022-07-29T19:36:18;1999.90;;;999.90;;
44446;SDS011;30152;52.066;5.358;2022-07-29T19:38:44;1999.90;;;999.90;;
44446;SDS011;30152;52.066;5.358;2022-07-29T19:41:10;1999.90;;;999.90;;
44446;SDS011;30152;52.066;5.358;2022-07-29T19:43:37;1999.90;;;999.90;;
44446;SDS011;30152;52.066;5.358;2022-07-29T19:46:03;1999.90;;;999.90;;
44446;SDS011;30152;52.066;5.358;2022-07-29T19:48:29;1999.90;;;999.90;;
44446;SDS011;30152;52.066;5.358;2022-07-29T19:50:55;1999.90;;;999.90;;
44446;SDS011;30152;52.066;5.358;2022-07-29T19:53:20;1999.90;;;999.90;;
44446;SDS011;30152;52.066;5.358;2022-07-29T19:55:46;59.50;;;56.10;;
44446;SDS011;30152;52.066;5.358;2022-07-29T19:58:13;1999.90;;;999.90;;
44446;SDS011;30152;52.066;5.358;2022-07-29T20:00:38;45.28;;;23.63;;
44446;SDS011;30152;52.066;5.358;2022-07-29T20:03:05;15.57;;;2.85;;
44446;SDS011;30152;52.066;5.358;2022-07-29T20:05:31;13.95;;;3.20;;
44446;SDS011;30152;52.066;5.358;2022-07-29T20:07:57;6.38;;;1.95;;
44446;SDS011;30152;52.066;5.358;2022-07-29T20:10:23;9.05;;;2.92;;
44446;SDS011;30152;52.066;5.358;2022-07-29T20:12:49;120.57;;;10.70;;
44446;SDS011;30152;52.066;5.358;2022-07-29T20:15:17;50.05;;;22.30;;
44446;SDS011;30152;52.066;5.358;2022-07-29T20:17:43;5.78;;;2.00;;
44446;SDS011;30152;52.066;5.358;2022-07-29T20:20:09;2.33;;;0.75;;
44446;SDS011;30152;52.066;5.358;2022-07-29T20:22:35;3.90;;;1.67;;
44446;SDS011;30152;52.066;5.358;2022-07-29T20:25:01;4.57;;;1.92;;
44446;SDS011;30152;52.066;5.358;2022-07-29T20:27:27;4.53;;;1.60;;
44446;SDS011;30152;52.066;5.358;2022-07-29T20:29:53;6.57;;;1.85;;
44446;SDS011;30152;52.066;5.358;2022-07-29T20:32:19;5.07;;;1.65;;
44446;SDS011;30152;52.066;5.358;2022-07-29T20:34:45;8.18;;;2.22;;
44446;SDS011;30152;52.066;5.358;2022-07-29T20:37:11;11.13;;;2.30;;
44446;SDS011;30152;52.066;5.358;2022-07-29T20:39:40;15.30;;;2.38;;
44446;SDS011;30152;52.066;5.358;2022-07-29T20:42:11;4.80;;;1.90;;
44446;SDS011;30152;52.066;5.358;2022-07-29T20:44:37;11.75;;;2.67;;
44446;SDS011;30152;52.066;5.358;2022-07-29T20:47:03;678.28;;;140.68;;
44446;SDS011;30152;52.066;5.358;2022-07-29T20:49:29;0.80;;;0.70;;
44446;SDS011;30152;52.066;5.358;2022-07-29T20:51:55;0.80;;;0.70;;
44446;SDS011;30152;52.066;5.358;2022-07-29T20:54:21;0.90;;;0.80;;
44446;SDS011;30152;52.066;5.358;2022-07-29T20:56:47;0.70;;;0.70;;
44446;SDS011;30152;52.066;5.358;2022-07-29T20:59:13;0.40;;;0.40;;
44446;SDS011;30152;52.066;5.358;2022-07-29T21:01:39;1999.90;;;999.90;;
44446;SDS011;30152;52.066;5.358;2022-07-29T21:04:05;1999.90;;;999.90;;
44446;SDS011;30152;52.066;5.358;2022-07-29T21:06:31;1999.90;;;999.90;;
44446;SDS011;30152;52.066;5.358;2022-07-29T21:08:58;21.30;;;20.20;;
44446;SDS011;30152;52.066;5.358;2022-07-29T21:11:25;1999.90;;;999.90;;
44446;SDS011;30152;52.066;5.358;2022-07-29T21:13:51;1999.90;;;999.90;;
44446;SDS011;30152;52.066;5.358;2022-07-29T21:16:17;1999.90;;;999.90;;
44446;SDS011;30152;52.066;5.358;2022-07-29T21:18:44;1999.90;;;999.90;;
